Time;durP1;ratioP1;P1;durP2;ratioP2;P2;SDS_P1;SDS_P2;PMS_P1;PMS_P2;Temp;Humidity;BMP_temperature;BMP_pressure;BME280_temperature;BME280_humidity;BME280_pressure;Samples;Min_cycle;Max_cycle;Signal;HPM_P1;HPM_P2
2023/08/04 00:00:58;;;;;;;9.48;2.10;;;16.00;99.90;;;;;;5054315;28;20056;-78
2023/08/04 00:03:24;;;;;;;9.38;1.92;;;16.00;99.90;;;;;;5057290;28;20044;-81
2023/08/04 00:05:50;;;;;;;10.00;2.30;;;16.00;99.90;;;;;;5056601;28;20048;-79
2023/08/04 00:08:15;;;;;;;13.48;2.65;;;16.00;99.90;;;;;;5041450;28;20397;-80
2023/08/04 00:10:41;;;;;;;12.45;2.42;;;16.00;99.90;;;;;;5039846;28;20045;-82
2023/08/04 00:13:07;;;;;;;12.38;2.47;;;16.10;99.90;;;;;;5058662;28;20051;-80
2023/08/04 00:15:33;;;;;;;12.85;2.05;;;16.10;99.90;;;;;;5059421;28;20049;-80
2023/08/04 00:17:58;;;;;;;8.85;1.95;;;16.00;99.90;;;;;;5055782;28;20041;-79
2023/08/04 00:20:24;;;;;;;9.48;2.00;;;16.00;99.90;;;;;;5060078;28;20041;-78
2023/08/04 00:22:50;;;;;;;10.50;2.20;;;16.10;99.90;;;;;;5058250;28;20076;-80
2023/08/04 00:25:15;;;;;;;11.63;1.75;;;16.10;99.90;;;;;;5055246;28;20056;-80
2023/08/04 00:27:41;;;;;;;9.87;1.93;;;16.00;99.90;;;;;;5056322;28;20055;-79
2023/08/04 00:30:09;;;;;;;15.35;2.00;;;16.00;99.90;;;;;;5056044;28;20065;-81
2023/08/04 00:32:35;;;;;;;7.80;1.85;;;16.00;99.90;;;;;;5056919;28;20076;-80
2023/08/04 00:35:03;;;;;;;12.68;1.85;;;16.00;99.90;;;;;;5058188;28;20115;-83
2023/08/04 00:37:29;;;;;;;9.68;2.08;;;16.00;99.90;;;;;;5055490;28;20053;-81
2023/08/04 00:39:54;;;;;;;13.82;2.10;;;16.00;99.90;;;;;;5055086;28;20048;-79
2023/08/04 00:42:20;;;;;;;12.80;2.27;;;16.00;99.90;;;;;;5058853;28;20135;-80
2023/08/04 00:44:46;;;;;;;9.73;1.85;;;16.10;99.90;;;;;;5057589;28;20057;-81
2023/08/04 00:47:12;;;;;;;10.77;1.80;;;16.10;99.90;;;;;;5056692;28;20044;-80
2023/08/04 00:49:38;;;;;;;8.77;1.85;;;16.10;99.90;;;;;;5021659;28;20048;-81
2023/08/04 00:52:05;;;;;;;8.40;1.80;;;16.10;99.90;;;;;;5055368;28;20057;-82
2023/08/04 00:54:30;;;;;;;12.30;2.00;;;16.10;99.90;;;;;;5055534;28;20106;-81
2023/08/04 00:56:57;;;;;;;11.63;1.80;;;16.00;99.90;;;;;;5055333;28;20068;-82
2023/08/04 00:59:23;;;;;;;9.77;1.92;;;15.90;99.90;;;;;;5055970;28;20045;-81
2023/08/04 01:01:49;;;;;;;10.90;2.00;;;15.80;99.90;;;;;;5054382;28;20103;-80
2023/08/04 01:04:16;;;;;;;14.23;2.15;;;15.70;99.90;;;;;;5055888;28;20389;-78
2023/08/04 01:06:56;;;;;;;10.73;1.80;;;15.60;99.90;;;;;;5038661;28;20080;-81
2023/08/04 01:09:47;;;;;;;10.02;2.40;;;15.60;99.90;;;;;;5055136;28;20128;-82
2023/08/04 01:12:42;;;;;;;10.35;2.20;;;15.50;99.90;;;;;;5055075;28;20049;-80
2023/08/04 01:15:09;;;;;;;10.35;2.17;;;15.50;99.90;;;;;;5057268;28;20060;-79
2023/08/04 01:17:35;;;;;;;14.45;2.50;;;15.30;99.90;;;;;;5056704;28;20110;-80
2023/08/04 01:20:03;;;;;;;12.55;1.90;;;15.20;99.90;;;;;;5056532;28;20049;-80
2023/08/04 01:22:29;;;;;;;14.40;2.15;;;15.20;99.90;;;;;;5056196;28;20049;-80
2023/08/04 01:24:55;;;;;;;13.70;2.67;;;15.00;99.90;;;;;;5055149;28;20049;-80
2023/08/04 01:27:43;;;;;;;7.35;2.13;;;15.00;99.90;;;;;;5057141;28;20412;-78
2023/08/04 01:30:15;;;;;;;12.25;2.33;;;14.90;99.90;;;;;;5056651;28;20048;-79
2023/08/04 01:32:41;;;;;;;9.25;2.20;;;14.70;99.90;;;;;;5039405;28;20048;-80
2023/08/04 01:35:08;;;;;;;11.45;2.72;;;14.70;99.90;;;;;;5056174;28;20136;-78
2023/08/04 01:37:33;;;;;;;9.75;2.55;;;14.60;99.90;;;;;;5055831;28;20416;-78
2023/08/04 01:39:59;;;;;;;10.90;2.95;;;14.60;99.90;;;;;;5056635;28;20045;-79
2023/08/04 01:42:25;;;;;;;9.82;2.65;;;14.50;99.90;;;;;;5054557;28;20057;-79
2023/08/04 01:44:51;;;;;;;12.93;3.17;;;14.50;99.90;;;;;;5056455;28;20045;-80
2023/08/04 01:47:16;;;;;;;11.48;3.05;;;14.40;99.90;;;;;;5055888;28;20395;-79
2023/08/04 01:49:42;;;;;;;15.30;2.53;;;14.40;99.90;;;;;;5056332;28;20041;-79
2023/08/04 01:52:08;;;;;;;11.73;2.90;;;14.30;99.90;;;;;;5055823;28;20064;-79
2023/08/04 01:54:33;;;;;;;14.13;3.33;;;14.20;99.90;;;;;;5054518;28;20044;-80
2023/08/04 01:56:59;;;;;;;13.68;3.22;;;14.20;99.90;;;;;;5055057;28;20049;-79
2023/08/04 01:59:25;;;;;;;10.35;3.08;;;14.10;99.90;;;;;;5055139;28;20507;-80
2023/08/04 02:01:50;;;;;;;11.63;3.55;;;14.10;99.90;;;;;;5040118;28;20044;-78
2023/08/04 02:04:16;;;;;;;9.65;2.70;;;14.00;99.90;;;;;;5039025;28;20048;-80
2023/08/04 02:06:42;;;;;;;14.65;3.25;;;14.00;99.90;;;;;;5057276;28;20048;-80
2023/08/04 02:09:08;;;;;;;12.82;3.20;;;14.10;99.90;;;;;;5058310;28;20040;-80
2023/08/04 02:11:33;;;;;;;7.28;3.15;;;14.10;99.90;;;;;;5055534;28;20088;-79
2023/08/04 02:14:00;;;;;;;10.75;2.88;;;14.10;99.90;;;;;;5042592;28;20049;-80
2023/08/04 02:16:26;;;;;;;14.30;3.20;;;14.10;99.90;;;;;;5059040;28;20061;-79
2023/08/04 02:18:59;;;;;;;10.88;2.92;;;14.10;99.90;;;;;;5062107;28;20370;-79
2023/08/04 02:21:25;;;;;;;12.07;3.25;;;14.20;99.90;;;;;;5063752;28;20049;-81
2023/08/04 02:23:51;;;;;;;13.13;3.17;;;14.20;99.90;;;;;;5059976;28;20525;-81
2023/08/04 02:26:16;;;;;;;13.02;2.78;;;14.30;99.90;;;;;;5061482;28;20409;-80
2023/08/04 02:28:42;;;;;;;10.63;2.92;;;14.30;99.90;;;;;;5059129;28;20084;-82
2023/08/04 02:31:08;;;;;;;13.60;2.72;;;14.30;99.90;;;;;;5061784;28;20051;-80
2023/08/04 02:33:33;;;;;;;10.77;2.85;;;14.40;99.90;;;;;;5060192;28;20053;-78
2023/08/04 02:36:01;;;;;;;9.90;2.55;;;14.40;99.90;;;;;;5061048;28;20497;-78
2023/08/04 02:38:27;;;;;;;13.13;2.88;;;14.40;99.90;;;;;;5059537;28;20083;-78
2023/08/04 02:40:52;;;;;;;12.07;2.85;;;14.50;99.90;;;;;;5056408;28;20049;-79
2023/08/04 02:43:18;;;;;;;10.48;2.60;;;14.50;99.90;;;;;;5059426;28;20049;-80
2023/08/04 02:45:51;;;;;;;13.23;2.85;;;14.60;99.90;;;;;;5058673;28;20048;-81
2023/08/04 02:48:17;;;;;;;9.95;2.25;;;14.60;99.90;;;;;;5056495;28;20044;-79
2023/08/04 02:50:43;;;;;;;13.77;2.23;;;14.70;99.90;;;;;;5055702;28;20041;-79
2023/08/04 02:53:09;;;;;;;13.52;2.85;;;14.70;99.90;;;;;;5054224;28;20059;-81
2023/08/04 02:55:34;;;;;;;8.40;2.03;;;14.80;99.90;;;;;;5053657;28;20056;-78
2023/08/04 02:58:00;;;;;;;9.75;2.30;;;14.80;99.90;;;;;;5038252;28;20481;-80
2023/08/04 03:00:26;;;;;;;8.02;2.25;;;14.80;99.90;;;;;;5055947;28;20055;-80
2023/08/04 03:02:52;;;;;;;7.22;1.83;;;14.80;99.90;;;;;;5057898;28;20053;-79
2023/08/04 03:05:18;;;;;;;9.18;1.90;;;14.90;99.90;;;;;;5051627;28;20493;-79
2023/08/04 03:07:43;;;;;;;9.00;1.77;;;14.90;99.90;;;;;;5061722;28;20053;-80
2023/08/04 03:10:09;;;;;;;9.45;1.98;;;15.00;99.90;;;;;;5055007;28;20048;-78
2023/08/04 03:12:35;;;;;;;12.07;2.03;;;15.00;99.90;;;;;;5055892;28;20115;-78
2023/08/04 03:15:02;;;;;;;13.45;2.08;;;15.10;99.90;;;;;;5053737;28;20125;-79
2023/08/04 03:17:28;;;;;;;8.77;1.77;;;15.10;99.90;;;;;;5053360;28;20481;-78
2023/08/04 03:19:54;;;;;;;11.50;2.15;;;15.10;99.90;;;;;;5054784;28;20048;-79
2023/08/04 03:22:20;;;;;;;8.02;2.17;;;15.10;99.90;;;;;;5053116;28;20052;-79
2023/08/04 03:24:45;;;;;;;10.00;2.00;;;15.10;99.90;;;;;;5054163;28;20052;-78
2023/08/04 03:27:11;;;;;;;7.47;2.08;;;15.10;99.90;;;;;;5054784;28;20045;-80
2023/08/04 03:29:37;;;;;;;6.38;1.83;;;15.20;99.90;;;;;;5055216;28;20037;-79
2023/08/04 03:32:03;;;;;;;5.95;1.90;;;15.10;99.90;;;;;;5054195;28;20464;-79
2023/08/04 03:34:29;;;;;;;5.15;2.00;;;15.10;99.90;;;;;;5035749;28;20412;-78
2023/08/04 03:36:54;;;;;;;9.80;1.63;;;15.20;99.90;;;;;;5054078;28;20053;-78
2023/08/04 03:39:20;;;;;;;5.95;1.90;;;15.20;99.90;;;;;;5055047;28;20094;-77
2023/08/04 03:41:46;;;;;;;14.05;1.85;;;15.10;99.90;;;;;;5057620;28;20106;-78
2023/08/04 03:44:12;;;;;;;7.05;2.30;;;15.10;99.90;;;;;;5056392;28;20049;-78
2023/08/04 03:46:38;;;;;;;12.90;2.83;;;15.10;99.90;;;;;;5055132;28;20477;-79
2023/08/04 03:49:03;;;;;;;7.07;1.67;;;15.10;99.90;;;;;;5053211;28;20472;-78
2023/08/04 03:51:29;;;;;;;8.13;1.92;;;15.10;99.90;;;;;;5054962;28;20048;-78
2023/08/04 03:53:55;;;;;;;9.73;1.95;;;15.10;99.90;;;;;;5056355;28;20052;-79
2023/08/04 03:56:20;;;;;;;8.52;1.63;;;15.10;99.90;;;;;;5054689;28;20467;-80
2023/08/04 03:58:46;;;;;;;7.55;1.98;;;15.10;99.90;;;;;;5057676;28;20426;-79
2023/08/04 04:01:12;;;;;;;7.35;1.60;;;15.10;99.90;;;;;;5054506;28;20123;-77
2023/08/04 04:03:38;;;;;;;8.27;1.60;;;15.10;99.90;;;;;;5053347;28;20041;-79
2023/08/04 04:06:03;;;;;;;7.43;1.92;;;15.10;99.90;;;;;;5057375;28;20049;-76
2023/08/04 04:08:29;;;;;;;12.40;2.28;;;15.10;99.90;;;;;;5053619;28;20048;-78
2023/08/04 04:10:55;;;;;;;6.55;1.77;;;15.10;99.90;;;;;;5053119;28;20040;-77
2023/08/04 04:13:22;;;;;;;8.63;2.17;;;15.20;99.90;;;;;;5038865;28;20184;-78
2023/08/04 04:15:47;;;;;;;;;;;15.20;99.90;;;;;;5055228;28;20041;-78
2023/08/04 04:18:13;;;;;;;6.60;1.40;;;15.20;99.90;;;;;;5086930;28;19928;-79
2023/08/04 04:20:39;;;;;;;9.02;1.73;;;15.20;99.90;;;;;;5053801;28;20045;-78
2023/08/04 04:23:05;;;;;;;7.13;1.65;;;15.20;99.90;;;;;;5055161;28;20057;-78
2023/08/04 04:25:30;;;;;;;9.93;1.60;;;15.20;99.90;;;;;;5053889;28;20033;-78
2023/08/04 04:27:56;;;;;;;6.72;1.85;;;15.30;99.90;;;;;;5054264;28;20048;-79
2023/08/04 04:30:22;;;;;;;8.80;1.70;;;15.20;99.90;;;;;;5068821;28;20125;-78
2023/08/04 04:32:47;;;;;;;10.30;1.80;;;15.30;99.90;;;;;;5052886;28;20099;-78
2023/08/04 04:35:13;;;;;;;7.05;1.92;;;15.30;99.90;;;;;;5054018;28;20135;-78
2023/08/04 04:37:39;;;;;;;5.78;1.80;;;15.30;99.90;;;;;;5053680;28;20107;-78
2023/08/04 04:40:05;;;;;;;6.38;1.75;;;15.30;99.90;;;;;;5054016;28;20136;-78
2023/08/04 04:42:34;;;;;;;12.27;2.28;;;15.30;99.90;;;;;;5052606;28;20059;-76
2023/08/04 04:45:00;;;;;;;8.10;1.92;;;15.30;99.90;;;;;;5053428;28;20052;-76
2023/08/04 04:47:26;;;;;;;9.15;2.10;;;15.40;99.90;;;;;;5058012;28;20362;-79
2023/08/04 04:49:52;;;;;;;5.05;1.70;;;15.40;99.90;;;;;;5058850;28;20041;-78
2023/08/04 04:52:33;;;;;;;9.98;2.15;;;15.30;99.90;;;;;;5041525;28;20420;-80
2023/08/04 04:55:00;;;;;;;7.13;1.80;;;15.40;99.90;;;;;;5057360;28;20051;-79
2023/08/04 04:57:29;;;;;;;8.93;2.15;;;15.40;99.90;;;;;;5056633;28;20538;-79
2023/08/04 04:59:55;;;;;;;8.00;2.15;;;15.40;99.90;;;;;;5056384;28;20079;-80
2023/08/04 05:02:21;;;;;;;6.50;1.85;;;15.40;99.90;;;;;;5056894;28;20045;-78
2023/08/04 05:04:47;;;;;;;7.35;2.08;;;15.40;99.90;;;;;;5056539;28;20339;-78
2023/08/04 05:07:13;;;;;;;6.80;1.52;;;15.50;99.90;;;;;;5056783;28;20063;-80
2023/08/04 05:09:39;;;;;;;8.70;1.70;;;15.60;99.90;;;;;;5057052;28;20378;-79
2023/08/04 05:12:06;;;;;;;4.90;1.60;;;15.60;99.90;;;;;;5057681;28;20128;-79
2023/08/04 05:14:34;;;;;;;7.88;1.88;;;15.60;99.90;;;;;;5057150;28;20045;-79
2023/08/04 05:16:59;;;;;;;7.63;2.03;;;15.70;99.90;;;;;;5040651;28;20107;-79
2023/08/04 05:19:25;;;;;;;7.38;1.83;;;15.70;99.90;;;;;;5059577;28;20053;-80
2023/08/04 05:21:51;;;;;;;8.25;2.20;;;15.70;99.90;;;;;;5060834;28;20045;-78
2023/08/04 05:24:17;;;;;;;11.57;2.25;;;15.70;99.90;;;;;;5061398;28;20049;-77
2023/08/04 05:26:43;;;;;;;7.25;1.90;;;15.80;99.90;;;;;;5069288;28;20044;-79
2023/08/04 05:29:08;;;;;;;9.38;2.00;;;15.90;99.90;;;;;;5060378;28;20041;-79
2023/08/04 05:31:34;;;;;;;7.30;1.83;;;15.90;99.90;;;;;;5056678;28;20041;-79
2023/08/04 05:34:01;;;;;;;5.35;1.65;;;15.90;99.90;;;;;;5023161;28;20052;-78
2023/08/04 05:36:27;;;;;;;;;;;15.90;99.90;;;;;;5063723;28;20107;-80
2023/08/04 05:38:53;;;;;;;8.87;1.90;;;15.90;99.90;;;;;;5063995;28;19921;-78
2023/08/04 05:41:19;;;;;;;10.30;1.90;;;16.00;99.90;;;;;;5061130;28;20045;-77
2023/08/04 05:43:44;;;;;;;10.77;1.90;;;16.00;99.90;;;;;;5063061;28;20044;-77
2023/08/04 05:46:12;;;;;;;8.25;1.75;;;16.10;99.90;;;;;;5059641;28;20048;-78
2023/08/04 05:48:39;;;;;;;5.93;1.65;;;16.20;99.90;;;;;;5041897;28;20056;-79
2023/08/04 05:51:05;;;;;;;8.43;2.00;;;16.30;99.90;;;;;;5058483;28;20409;-78
2023/08/04 05:53:32;;;;;;;8.00;1.65;;;16.40;99.90;;;;;;5057294;28;20078;-79
2023/08/04 05:55:58;;;;;;;6.05;1.20;;;16.50;99.90;;;;;;5060162;28;20128;-79
2023/08/04 05:58:23;;;;;;;9.10;1.50;;;16.60;99.90;;;;;;5041693;28;20150;-77
2023/08/04 06:00:49;;;;;;;7.33;1.63;;;16.70;99.90;;;;;;5056208;28;20049;-79
2023/08/04 06:03:15;;;;;;;6.30;1.00;;;16.80;99.90;;;;;;5058555;28;20049;-77
2023/08/04 06:05:41;;;;;;;5.63;1.40;;;16.80;99.90;;;;;;5055189;28;20056;-77
2023/08/04 06:08:07;;;;;;;3.72;0.85;;;16.90;99.90;;;;;;5057640;28;20064;-78
2023/08/04 06:10:33;;;;;;;5.83;1.00;;;17.00;99.90;;;;;;5055611;28;20044;-77
2023/08/04 06:13:00;;;;;;;5.63;1.30;;;17.00;99.90;;;;;;5055542;28;20102;-78
2023/08/04 06:15:26;;;;;;;3.85;1.00;;;17.10;99.90;;;;;;5056067;28;20057;-80
2023/08/04 06:17:51;;;;;;;6.15;1.13;;;17.20;99.90;;;;;;5039437;28;20551;-79
2023/08/04 06:20:17;;;;;;;7.60;0.80;;;17.30;99.90;;;;;;5057534;28;20068;-79
2023/08/04 06:22:47;;;;;;;2.53;0.60;;;17.40;99.90;;;;;;5055527;28;20049;-79
2023/08/04 06:25:14;;;;;;;5.95;0.60;;;17.50;99.90;;;;;;5058512;28;20048;-79
2023/08/04 06:27:41;;;;;;;3.38;0.60;;;17.60;99.90;;;;;;5039973;28;20051;-80
2023/08/04 06:30:07;;;;;;;4.47;0.50;;;17.70;99.90;;;;;;5056490;28;20051;-79
2023/08/04 06:32:33;;;;;;;4.20;0.57;;;17.70;99.90;;;;;;5057466;28;20104;-79
2023/08/04 06:34:59;;;;;;;5.47;0.67;;;17.70;99.90;;;;;;5059751;28;20116;-79
2023/08/04 06:37:25;;;;;;;9.37;0.80;;;17.80;99.90;;;;;;5039103;28;20103;-82
2023/08/04 06:39:50;;;;;;;2.75;0.60;;;17.80;99.90;;;;;;5055391;28;20049;-78
2023/08/04 06:42:17;;;;;;;3.28;0.55;;;17.80;99.90;;;;;;5057035;28;20469;-84
2023/08/04 06:44:43;;;;;;;3.75;0.75;;;17.90;99.90;;;;;;5056757;28;20135;-78
2023/08/04 06:47:09;;;;;;;5.57;0.57;;;18.00;99.90;;;;;;5038809;28;20469;-79
2023/08/04 06:49:35;;;;;;;5.07;0.60;;;18.00;99.90;;;;;;5058701;28;20045;-78
2023/08/04 06:52:01;;;;;;;4.25;0.50;;;18.10;99.90;;;;;;5055697;28;20052;-78
2023/08/04 06:54:27;;;;;;;2.63;0.50;;;18.20;99.90;;;;;;5057540;28;20085;-77
2023/08/04 06:56:53;;;;;;;4.43;0.50;;;18.20;99.90;;;;;;5057084;28;20045;-77
2023/08/04 06:59:19;;;;;;;4.18;0.68;;;18.30;99.90;;;;;;5040302;28;20041;-77
2023/08/04 07:01:44;;;;;;;3.73;0.67;;;18.30;99.90;;;;;;5057095;28;20075;-82
2023/08/04 07:04:10;;;;;;;3.00;0.60;;;18.30;99.90;;;;;;5056079;28;20048;-80
2023/08/04 07:06:36;;;;;;;3.87;0.80;;;18.30;99.90;;;;;;5055995;28;20369;-78
2023/08/04 07:09:02;;;;;;;3.97;0.70;;;18.40;99.90;;;;;;5055021;28;20040;-78
2023/08/04 07:11:28;;;;;;;4.85;0.55;;;18.40;99.90;;;;;;5060292;28;20055;-79
2023/08/04 07:13:54;;;;;;;5.30;0.77;;;18.40;99.90;;;;;;5055533;28;20485;-76
2023/08/04 07:16:21;;;;;;;5.30;0.70;;;18.50;99.90;;;;;;5058034;28;20045;-77
2023/08/04 07:18:46;;;;;;;2.90;0.68;;;18.50;99.90;;;;;;5056510;28;20049;-78
2023/08/04 07:21:13;;;;;;;4.63;0.80;;;18.50;99.90;;;;;;5055496;28;20515;-78
2023/08/04 07:23:40;;;;;;;2.13;0.63;;;18.50;99.90;;;;;;5055737;28;20075;-77
2023/08/04 07:26:07;;;;;;;8.15;0.80;;;18.50;99.90;;;;;;5059503;28;20053;-82
2023/08/04 07:28:33;;;;;;;3.85;0.60;;;18.40;99.90;;;;;;5055211;28;20094;-79
2023/08/04 07:31:10;;;;;;;5.95;0.98;;;18.50;99.90;;;;;;5056978;28;20048;-80
2023/08/04 07:33:37;;;;;;;7.10;1.48;;;18.40;99.90;;;;;;5057802;28;20135;-82
2023/08/04 07:36:03;;;;;;;4.60;0.80;;;18.40;99.90;;;;;;5055997;28;20159;-82
2023/08/04 07:38:30;;;;;;;3.17;1.10;;;18.50;99.90;;;;;;5054592;28;20094;-79
2023/08/04 07:40:57;;;;;;;5.85;1.02;;;18.60;99.90;;;;;;5054107;28;20048;-79
2023/08/04 07:43:23;;;;;;;4.80;1.25;;;18.60;99.90;;;;;;5055249;28;20104;-79
2023/08/04 07:45:50;;;;;;;6.65;1.40;;;18.60;99.90;;;;;;5055841;28;20086;-78
2023/08/04 07:48:15;;;;;;;7.80;1.42;;;18.40;99.90;;;;;;5055839;28;20059;-79
2023/08/04 07:50:43;;;;;;;4.67;0.90;;;18.60;99.90;;;;;;5058483;28;20041;-78
2023/08/04 07:53:09;;;;;;;5.63;1.05;;;18.80;99.90;;;;;;5039156;28;20433;-77
2023/08/04 07:55:36;;;;;;;6.43;0.90;;;19.00;99.90;;;;;;5055635;28;20138;-79
2023/08/04 07:58:11;;;;;;;4.50;1.02;;;19.00;99.90;;;;;;5056661;28;20045;-83
2023/08/04 08:00:37;;;;;;;5.93;1.08;;;19.10;99.90;;;;;;5058155;28;20128;-79
2023/08/04 08:03:03;;;;;;;4.33;0.90;;;19.30;99.90;;;;;;5055328;28;20131;-82
2023/08/04 08:05:28;;;;;;;4.93;0.90;;;19.40;99.90;;;;;;5055365;28;20099;-80
2023/08/04 08:07:54;;;;;;;4.10;0.90;;;19.60;99.90;;;;;;5054979;28;20283;-80
2023/08/04 08:10:20;;;;;;;4.57;1.00;;;19.50;99.90;;;;;;5054615;28;20110;-80
2023/08/04 08:12:46;;;;;;;5.67;1.00;;;19.40;99.90;;;;;;5055701;28;20399;-79
2023/08/04 08:15:12;;;;;;;5.27;0.80;;;19.60;99.90;;;;;;5053944;28;20047;-78
2023/08/04 08:17:38;;;;;;;5.53;1.02;;;19.80;99.90;;;;;;5054590;28;20081;-77
2023/08/04 08:20:05;;;;;;;6.63;0.93;;;19.90;99.90;;;;;;5055085;28;20049;-79
2023/08/04 08:22:31;;;;;;;3.67;0.75;;;20.00;99.90;;;;;;5060143;28;20115;-79
2023/08/04 08:24:57;;;;;;;4.43;1.20;;;20.00;99.90;;;;;;5041996;28;20078;-81
2023/08/04 08:27:23;;;;;;;4.63;1.10;;;20.00;99.90;;;;;;5062843;28;20041;-80
2023/08/04 08:29:54;;;;;;;5.07;1.25;;;19.80;99.90;;;;;;5060297;28;20049;-80
2023/08/04 08:32:20;;;;;;;6.43;0.90;;;19.80;99.90;;;;;;5062331;28;20476;-82
2023/08/04 08:34:46;;;;;;;3.43;1.07;;;19.60;99.90;;;;;;5062422;28;20402;-80
2023/08/04 08:37:12;;;;;;;6.00;1.20;;;19.70;99.90;;;;;;5063402;28;20326;-79
2023/08/04 08:39:38;;;;;;;4.20;1.00;;;19.80;99.90;;;;;;5059060;28;20049;-78
2023/08/04 08:42:03;;;;;;;4.60;1.00;;;19.80;99.90;;;;;;5057546;28;20497;-77
2023/08/04 08:44:29;;;;;;;5.70;1.10;;;19.70;99.90;;;;;;5058890;28;20041;-79
2023/08/04 08:46:55;;;;;;;4.43;0.80;;;19.50;99.90;;;;;;5060612;28;20049;-79
2023/08/04 08:49:27;;;;;;;4.83;1.00;;;19.50;99.90;;;;;;5059542;28;20041;-79
2023/08/04 08:51:54;;;;;;;5.07;0.80;;;19.50;99.90;;;;;;5060333;28;20049;-80
2023/08/04 08:54:20;;;;;;;6.32;1.20;;;19.70;99.90;;;;;;5059040;28;20053;-78
2023/08/04 08:56:47;;;;;;;4.13;1.33;;;19.60;99.90;;;;;;5059062;28;20049;-79
2023/08/04 08:59:13;;;;;;;4.57;1.48;;;19.70;99.90;;;;;;5059023;28;20052;-81
2023/08/04 09:01:39;;;;;;;4.43;1.00;;;20.00;99.90;;;;;;5056608;28;20462;-78
2023/08/04 09:04:05;;;;;;;7.23;0.97;;;20.20;99.90;;;;;;5057818;28;20041;-73
2023/08/04 09:06:31;;;;;;;7.20;1.15;;;20.40;99.90;;;;;;5060528;28;20052;-79
2023/08/04 09:09:00;;;;;;;6.30;1.50;;;20.40;99.90;;;;;;5060686;28;20052;-80
2023/08/04 09:11:29;;;;;;;2.92;0.90;;;20.60;99.90;;;;;;5058174;28;20041;-80
2023/08/04 09:13:55;;;;;;;3.90;0.75;;;20.50;99.90;;;;;;5058017;28;20040;-79
2023/08/04 09:16:36;;;;;;;5.25;0.93;;;20.80;99.90;;;;;;5058410;28;20087;-79
2023/08/04 09:19:04;;;;;;;6.57;0.88;;;21.00;99.90;;;;;;5040086;28;20040;-81
2023/08/04 09:21:31;;;;;;;3.47;0.75;;;21.20;99.90;;;;;;5056316;28;20045;-82
2023/08/04 09:23:56;;;;;;;3.20;0.82;;;21.20;99.90;;;;;;5060894;28;20110;-75
2023/08/04 09:26:22;;;;;;;3.60;0.97;;;21.30;99.90;;;;;;5056839;28;20560;-79
2023/08/04 09:29:05;;;;;;;5.80;1.23;;;20.70;99.90;;;;;;5057221;28;20143;-83
2023/08/04 09:31:36;;;;;;;6.35;1.42;;;20.30;99.90;;;;;;5054675;28;20120;-77
2023/08/04 09:34:07;;;;;;;4.00;1.10;;;19.20;99.90;;;;;;5056300;28;20045;-76
2023/08/04 09:36:41;;;;;;;4.40;1.40;;;18.60;99.90;;;;;;5056730;28;20045;-77
2023/08/04 09:39:09;;;;;;;5.35;1.20;;;18.20;99.90;;;;;;5039044;28;20132;-76
2023/08/04 09:41:39;;;;;;;5.97;1.00;;;17.90;99.90;;;;;;5057204;28;20057;-77
2023/08/04 09:44:06;;;;;;;4.10;0.70;;;17.70;99.90;;;;;;5054942;28;20114;-76
2023/08/04 09:46:38;;;;;;;7.65;0.70;;;17.80;99.90;;;;;;5055941;28;20056;-78
2023/08/04 09:49:03;;;;;;;2.17;0.70;;;18.10;99.90;;;;;;5056369;28;20071;-76
2023/08/04 09:51:29;;;;;;;2.57;0.60;;;18.20;99.90;;;;;;5055415;28;20124;-80
2023/08/04 09:53:55;;;;;;;4.53;0.77;;;18.40;99.90;;;;;;5056590;28;20055;-79
2023/08/04 09:56:23;;;;;;;2.83;0.77;;;18.20;99.90;;;;;;5055815;28;20489;-80
2023/08/04 09:58:49;;;;;;;3.92;0.80;;;18.30;99.90;;;;;;5055803;28;20057;-80
2023/08/04 10:01:16;;;;;;;5.07;0.90;;;18.50;99.90;;;;;;5054974;28;20134;-80
2023/08/04 10:03:45;;;;;;;4.68;0.80;;;18.80;99.90;;;;;;5055546;28;20358;-80
2023/08/04 10:06:11;;;;;;;4.53;0.90;;;19.00;99.90;;;;;;5055997;28;20111;-82
2023/08/04 10:08:40;;;;;;;6.33;1.00;;;19.00;99.90;;;;;;5055620;28;20083;-80
2023/08/04 10:11:07;;;;;;;3.75;0.95;;;19.10;99.90;;;;;;5038666;28;20360;-79
2023/08/04 10:13:34;;;;;;;;;;;19.40;99.90;;;;;;5057907;28;20052;-78
2023/08/04 10:16:03;;;;;;;6.70;0.90;;;19.50;99.90;;;;;;5057627;28;19970;-80
2023/08/04 10:18:54;;;;;;;9.48;0.88;;;19.60;99.90;;;;;;5058349;28;20465;-79
2023/08/04 10:21:27;;;;;;;6.07;1.05;;;20.00;99.90;;;;;;5055909;28;20142;-78
2023/08/04 10:23:53;;;;;;;4.38;0.90;;;20.20;99.90;;;;;;5058360;28;20052;-79
2023/08/04 10:26:19;;;;;;;4.18;0.88;;;20.40;99.90;;;;;;5059745;28;20068;-81
2023/08/04 10:29:01;;;;;;;7.27;1.13;;;20.50;99.90;;;;;;5056943;28;20048;-80
2023/08/04 10:31:47;;;;;;;3.63;1.00;;;21.00;99.90;;;;;;5056902;28;20056;-78
2023/08/04 10:34:28;;;;;;;6.03;0.93;;;21.30;99.90;;;;;;5061655;28;20128;-81
2023/08/04 10:37:14;;;;;;;4.57;1.00;;;21.20;99.90;;;;;;5054722;28;20096;-81
2023/08/04 10:39:59;;;;;;;6.82;1.20;;;21.20;99.90;;;;;;5061747;28;20048;-81
2023/08/04 10:42:30;;;;;;;8.63;1.35;;;21.10;99.90;;;;;;5057325;28;20053;-83
2023/08/04 10:45:07;;;;;;;9.55;1.80;;;20.70;99.90;;;;;;5055511;28;20155;-77
2023/08/04 10:47:35;;;;;;;8.90;1.52;;;20.20;99.90;;;;;;5037470;28;20127;-81
2023/08/04 10:50:03;;;;;;;6.38;1.40;;;19.50;99.90;;;;;;5055365;28;20052;-78
2023/08/04 10:52:32;;;;;;;7.38;1.30;;;18.90;99.90;;;;;;5054278;28;20369;-74
2023/08/04 10:54:58;;;;;;;4.22;1.40;;;18.70;99.90;;;;;;5055383;28;20049;-78
2023/08/04 10:57:30;;;;;;;10.20;1.15;;;18.60;99.90;;;;;;5053627;28;20061;-78
2023/08/04 10:59:56;;;;;;;5.25;1.20;;;18.50;99.90;;;;;;5040012;28;20056;-80
2023/08/04 11:02:23;;;;;;;3.13;1.00;;;18.50;99.90;;;;;;5054240;28;20174;-79
2023/08/04 11:04:50;;;;;;;;;;;18.50;99.90;;;;;;5055891;28;20049;-82
2023/08/04 11:07:17;;;;;;;7.85;1.20;;;18.50;99.90;;;;;;5056563;28;19924;-83
2023/08/04 11:09:45;;;;;;;4.70;0.85;;;18.70;99.90;;;;;;5057070;28;20048;-83
2023/08/04 11:12:11;;;;;;;4.28;1.10;;;18.80;99.90;;;;;;5057189;28;20121;-84
2023/08/04 11:14:38;;;;;;;8.80;1.30;;;18.90;99.90;;;;;;5059200;28;20109;-84
2023/08/04 11:17:20;;;;;;;5.85;1.27;;;18.90;99.90;;;;;;5057917;28;20163;-81
2023/08/04 11:19:48;;;;;;;6.20;1.15;;;19.10;99.90;;;;;;5040554;28;20436;-83
2023/08/04 11:22:21;;;;;;;7.72;1.50;;;19.40;99.90;;;;;;5060021;28;20041;-83
2023/08/04 11:24:50;;;;;;;5.55;1.50;;;19.70;99.90;;;;;;5058945;28;20477;-81
2023/08/04 11:27:16;;;;;;;9.77;1.85;;;20.00;99.90;;;;;;5059708;28;20088;-80
2023/08/04 11:29:42;;;;;;;6.77;1.37;;;20.20;99.90;;;;;;5059875;28;20098;-85
2023/08/04 11:32:09;;;;;;;11.35;1.40;;;20.30;99.90;;;;;;5059818;28;20103;-81
2023/08/04 11:34:35;;;;;;;6.47;1.33;;;20.30;99.90;;;;;;5054428;28;20057;-81
2023/08/04 11:37:01;;;;;;;3.73;1.17;;;20.40;99.90;;;;;;5055434;28;20045;-82
2023/08/04 11:39:30;;;;;;;8.43;1.53;;;20.70;99.90;;;;;;5036880;28;20303;-78
2023/08/04 11:41:56;;;;;;;4.25;0.90;;;20.80;99.90;;;;;;5055696;28;20291;-78
2023/08/04 11:44:22;;;;;;;2.33;0.60;;;21.00;99.90;;;;;;5055115;28;20064;-81
2023/08/04 11:46:48;;;;;;;4.95;1.00;;;21.40;99.90;;;;;;5057348;28;20291;-79
2023/08/04 11:49:15;;;;;;;6.73;0.87;;;21.50;99.90;;;;;;5060576;28;20053;-82
2023/08/04 11:51:44;;;;;;;7.22;1.17;;;21.60;99.90;;;;;;5066525;28;20283;-83
2023/08/04 11:54:21;;;;;;;5.55;1.02;;;21.90;99.90;;;;;;5063191;28;20477;-77
2023/08/04 11:56:56;;;;;;;4.82;1.20;;;22.10;99.90;;;;;;5056869;28;20082;-80
2023/08/04 11:59:23;;;;;;;8.13;1.33;;;22.00;99.90;;;;;;5054730;28;20489;-81
2023/08/04 12:01:49;;;;;;;8.00;1.42;;;21.70;99.90;;;;;;5056619;28;20052;-86
2023/08/04 12:04:25;;;;;;;6.95;1.40;;;21.90;99.90;;;;;;5057445;28;20055;-80
2023/08/04 12:07:02;;;;;;;9.63;1.67;;;21.70;99.90;;;;;;5054882;28;20488;-86
2023/08/04 12:09:28;;;;;;;8.50;1.63;;;21.70;99.90;;;;;;5054369;28;20040;-84
2023/08/04 12:11:54;;;;;;;6.22;1.58;;;21.90;99.90;;;;;;5054389;28;20044;-81
2023/08/04 12:14:21;;;;;;;12.23;2.38;;;22.10;99.90;;;;;;5053181;28;20431;-81
2023/08/04 12:17:01;;;;;;;10.02;1.45;;;22.00;99.90;;;;;;5054787;28;20128;-86
2023/08/04 12:19:28;;;;;;;8.48;2.30;;;22.00;99.90;;;;;;5054474;28;20041;-81
2023/08/04 12:22:00;;;;;;;7.35;1.67;;;21.70;99.90;;;;;;5055400;28;20435;-86
2023/08/04 12:24:28;;;;;;;9.68;1.80;;;21.60;99.90;;;;;;5053464;28;20106;-81
2023/08/04 12:26:53;;;;;;;11.25;1.48;;;21.60;99.90;;;;;;5053989;28;20044;-73
2023/08/04 12:29:19;;;;;;;7.70;1.40;;;21.50;99.90;;;;;;5053860;28;20385;-79
2023/08/04 12:31:46;;;;;;;7.22;1.10;;;21.30;99.90;;;;;;5053953;28;20131;-75
2023/08/04 12:34:12;;;;;;;10.43;1.83;;;21.20;99.90;;;;;;5052802;28;20134;-76
2023/08/04 12:36:39;;;;;;;9.20;2.27;;;20.50;99.90;;;;;;5055106;28;20093;-78
2023/08/04 12:39:07;;;;;;;6.07;1.70;;;20.50;99.90;;;;;;5057745;28;20287;-81
2023/08/04 12:41:32;;;;;;;8.18;1.35;;;20.60;99.90;;;;;;5056895;28;20055;-87
2023/08/04 12:43:58;;;;;;;7.80;1.30;;;20.40;99.90;;;;;;5059970;28;20049;-80
2023/08/04 12:46:28;;;;;;;10.80;1.90;;;20.20;99.90;;;;;;5058665;28;20056;-79